createdAt,value
2023-05-14T00:02:22.415Z,30.98
2023-05-14T00:04:49.255Z,29.33
2023-05-14T00:07:16.962Z,28.92
2023-05-14T00:09:43.638Z,31.50
2023-05-14T00:12:14.477Z,32.63
2023-05-14T00:14:41.140Z,29.23
2023-05-14T00:17:08.688Z,32.55
2023-05-14T00:19:35.339Z,31.77
2023-05-14T00:22:11.054Z,31.98
2023-05-14T00:24:37.815Z,32.30
2023-05-14T00:27:08.643Z,29.92
2023-05-14T00:29:50.832Z,30.80
2023-05-14T00:32:18.130Z,29.10
2023-05-14T00:37:18.042Z,30.45
2023-05-14T00:39:44.694Z,29.42
2023-05-14T00:42:11.380Z,30.38
2023-05-14T00:44:39.820Z,33.00
2023-05-14T00:47:12.806Z,30.98
2023-05-14T00:49:43.924Z,30.88
2023-05-14T00:52:12.170Z,31.30
2023-05-14T00:54:40.186Z,29.60
2023-05-14T00:57:07.692Z,30.73
2023-05-14T00:59:37.986Z,32.63
2023-05-14T01:02:08.133Z,30.15
2023-05-14T01:04:38.171Z,30.30
2023-05-14T01:07:08.742Z,29.23
2023-05-14T01:09:55.906Z,30.80
2023-05-14T01:12:47.956Z,34.78
2023-05-14T01:15:23.365Z,29.23
2023-05-14T01:18:16.259Z,32.28
2023-05-14T01:25:41.080Z,34.47
2023-05-14T01:28:19.599Z,30.90
2023-05-14T01:30:50.203Z,32.20
2023-05-14T01:33:25.665Z,31.45
2023-05-14T01:35:53.915Z,32.35
2023-05-14T01:38:21.537Z,30.95
2023-05-14T01:40:54.353Z,32.25
2023-05-14T01:43:21.970Z,32.40
2023-05-14T01:45:51.959Z,31.08
2023-05-14T01:48:22.035Z,30.67
2023-05-14T01:50:48.979Z,30.85
2023-05-14T01:53:15.860Z,32.88
2023-05-14T01:55:55.126Z,33.78
2023-05-14T01:58:33.512Z,34.53
2023-05-14T02:01:09.624Z,34.47
2023-05-14T02:03:36.561Z,34.03
2023-05-14T02:06:09.138Z,33.92
2023-05-14T02:08:36.268Z,34.22
2023-05-14T02:11:05.772Z,34.05
2023-05-14T02:13:35.544Z,33.75
2023-05-14T02:16:13.715Z,32.28
2023-05-14T02:18:40.599Z,34.47
2023-05-14T02:21:07.334Z,33.78
2023-05-14T02:23:41.010Z,33.22
2023-05-14T02:26:09.885Z,32.92
2023-05-14T02:28:39.510Z,34.38
2023-05-14T02:31:06.388Z,30.55
2023-05-14T02:33:33.627Z,31.85
2023-05-14T02:36:00.315Z,33.65
2023-05-14T02:38:29.808Z,33.17
2023-05-14T02:40:56.959Z,33.22
2023-05-14T02:43:26.619Z,32.80
2023-05-14T02:45:53.493Z,33.78
2023-05-14T02:48:23.361Z,30.55
2023-05-14T02:50:51.732Z,30.95
2023-05-14T02:53:18.391Z,32.53
2023-05-14T02:55:45.041Z,32.22
2023-05-14T02:58:11.729Z,32.17
2023-05-14T03:00:39.039Z,30.73
2023-05-14T03:03:08.799Z,29.90
2023-05-14T03:05:35.909Z,30.83
2023-05-14T03:08:05.270Z,32.45
2023-05-14T03:10:34.934Z,29.55
2023-05-14T03:13:02.721Z,31.70
2023-05-14T03:15:29.444Z,33.03
2023-05-14T03:17:57.163Z,30.30
2023-05-14T03:20:39.656Z,30.77
2023-05-14T03:23:09.595Z,31.70
2023-05-14T03:25:37.848Z,36.28
2023-05-14T03:28:08.073Z,31.65
2023-05-14T03:30:34.894Z,34.75
2023-05-14T03:33:07.673Z,30.65
2023-05-14T03:35:34.414Z,33.67
2023-05-14T03:38:01.619Z,30.80
2023-05-14T03:40:40.112Z,32.70
2023-05-14T03:43:19.525Z,31.33
2023-05-14T03:45:46.369Z,30.50
2023-05-14T03:48:13.192Z,29.90
2023-05-14T03:50:39.981Z,33.47
2023-05-14T03:53:10.664Z,29.25
2023-05-14T03:55:37.441Z,32.20
2023-05-14T03:58:21.685Z,37.08
2023-05-14T04:00:51.046Z,31.33
2023-05-14T04:03:18.389Z,30.90
2023-05-14T04:10:38.810Z,28.08
2023-05-14T04:13:06.544Z,28.95
2023-05-14T04:15:33.292Z,29.02
2023-05-14T04:18:03.516Z,30.05
2023-05-14T04:20:41.895Z,33.35
2023-05-14T04:23:15.706Z,29.45
2023-05-14T04:28:28.842Z,29.02
2023-05-14T04:30:55.726Z,28.77
2023-05-14T04:33:23.778Z,27.23
2023-05-14T04:35:59.824Z,26.90
2023-05-14T04:38:30.605Z,27.40
2023-05-14T04:41:00.506Z,27.92
2023-05-14T04:43:29.843Z,27.38
2023-05-14T04:45:56.564Z,26.38
2023-05-14T04:48:23.349Z,26.65
2023-05-14T04:50:50.032Z,26.90
2023-05-14T04:53:18.147Z,26.25
2023-05-14T04:55:44.811Z,27.35
2023-05-14T04:58:11.488Z,31.00
2023-05-14T05:00:38.552Z,24.80
2023-05-14T05:03:05.333Z,26.95
2023-05-14T05:05:32.109Z,27.17
2023-05-14T05:07:58.856Z,30.48
2023-05-14T05:10:26.961Z,30.95
2023-05-14T05:12:57.930Z,25.42
2023-05-14T05:15:26.512Z,26.17
2023-05-14T05:17:53.536Z,26.15
2023-05-14T05:20:20.937Z,25.20
2023-05-14T05:22:52.752Z,25.35
2023-05-14T05:25:19.457Z,26.35
2023-05-14T05:27:47.318Z,26.42
2023-05-14T05:30:14.162Z,25.92
2023-05-14T05:32:40.992Z,23.48
2023-05-14T05:35:07.859Z,24.73
2023-05-14T05:37:34.570Z,25.60
2023-05-14T05:40:04.817Z,26.23
2023-05-14T05:42:33.232Z,24.92
2023-05-14T05:45:01.017Z,25.55
2023-05-14T05:47:27.717Z,33.00
2023-05-14T05:49:54.374Z,25.63
2023-05-14T05:52:27.567Z,24.35
2023-05-14T05:54:59.835Z,25.58
2023-05-14T05:57:27.460Z,24.00
2023-05-14T05:59:57.308Z,24.92
2023-05-14T06:05:06.199Z,28.63
2023-05-14T06:12:51.715Z,25.27
2023-05-14T06:15:18.650Z,25.17
2023-05-14T06:17:48.381Z,24.35
2023-05-14T06:20:18.084Z,26.17
2023-05-14T06:22:44.942Z,23.33
2023-05-14T06:25:11.809Z,23.67
2023-05-14T06:27:38.434Z,24.58
2023-05-14T06:30:11.529Z,24.10
2023-05-14T06:32:41.035Z,24.98
2023-05-14T06:35:08.032Z,26.67
2023-05-14T06:37:34.703Z,24.98
2023-05-14T06:40:02.189Z,23.83
2023-05-14T06:42:28.838Z,24.70
2023-05-14T06:44:56.228Z,24.17
2023-05-14T06:47:23.030Z,26.45
2023-05-14T06:49:49.871Z,23.20
2023-05-14T06:52:18.764Z,24.08
2023-05-14T06:54:45.555Z,24.60
2023-05-14T06:57:12.786Z,27.08
2023-05-14T06:59:39.510Z,23.02
2023-05-14T07:02:06.226Z,23.58
2023-05-14T07:04:33.165Z,22.40
2023-05-14T07:07:00.027Z,32.25
2023-05-14T07:09:26.658Z,22.25
2023-05-14T07:11:53.371Z,23.33
2023-05-14T07:14:25.458Z,22.92
2023-05-14T07:16:52.200Z,27.20
2023-05-14T07:19:19.200Z,23.48
2023-05-14T07:21:45.964Z,23.02
2023-05-14T07:24:12.681Z,23.52
2023-05-14T07:26:39.584Z,23.75
2023-05-14T07:29:06.832Z,23.15
2023-05-14T07:31:33.862Z,25.20
2023-05-14T07:34:00.620Z,25.38
2023-05-14T07:36:30.278Z,23.63
2023-05-14T07:38:56.954Z,22.92
2023-05-14T07:41:23.613Z,23.00
2023-05-14T07:43:50.248Z,22.00
2023-05-14T07:46:16.925Z,21.98
2023-05-14T07:48:43.703Z,22.98
2023-05-14T07:51:20.936Z,21.48
2023-05-14T07:53:51.507Z,21.83
2023-05-14T07:56:20.418Z,20.85
2023-05-14T07:58:50.048Z,22.30
2023-05-14T08:01:19.544Z,23.02
2023-05-14T08:03:46.320Z,22.08
2023-05-14T08:06:13.097Z,22.48
2023-05-14T08:08:46.203Z,22.90
2023-05-14T08:11:13.035Z,24.88
2023-05-14T08:13:42.410Z,23.00
2023-05-14T08:16:19.160Z,22.58
2023-05-14T08:18:46.484Z,23.23
2023-05-14T08:21:16.672Z,22.55
2023-05-14T08:23:46.322Z,21.35
2023-05-14T08:26:13.483Z,21.08
2023-05-14T08:28:40.649Z,24.30
2023-05-14T08:31:10.516Z,21.00
2023-05-14T08:33:40.941Z,22.55
2023-05-14T08:36:07.754Z,22.80
2023-05-14T08:38:45.724Z,23.27
2023-05-14T08:41:13.605Z,22.33
2023-05-14T08:44:02.817Z,21.65
2023-05-14T08:46:30.433Z,22.85
2023-05-14T08:49:00.874Z,24.50
2023-05-14T08:51:30.730Z,21.17
2023-05-14T08:54:02.416Z,20.70
2023-05-14T08:56:32.752Z,21.20
2023-05-14T08:59:05.169Z,20.95
2023-05-14T09:01:38.942Z,20.65
2023-05-14T09:04:08.714Z,29.02
2023-05-14T09:06:41.488Z,21.13
2023-05-14T09:09:12.952Z,21.23
2023-05-14T09:11:43.557Z,20.85
2023-05-14T09:14:13.813Z,21.25
2023-05-14T09:16:42.967Z,21.27
2023-05-14T09:19:09.926Z,21.90
2023-05-14T09:24:07.248Z,20.23
2023-05-14T09:26:36.997Z,22.35
2023-05-14T09:29:04.747Z,22.20
2023-05-14T09:31:32.679Z,21.50
2023-05-14T09:34:00.325Z,20.80
2023-05-14T09:36:43.642Z,21.35
2023-05-14T09:39:14.397Z,23.55
2023-05-14T09:41:41.767Z,22.80
2023-05-14T09:44:11.451Z,22.60
2023-05-14T09:46:44.018Z,23.13
2023-05-14T09:49:10.698Z,20.88
2023-05-14T09:51:38.106Z,22.35
2023-05-14T09:54:05.192Z,20.48
2023-05-14T09:56:33.396Z,23.52
2023-05-14T09:59:03.382Z,28.25
2023-05-14T10:01:33.895Z,19.45
2023-05-14T10:04:04.351Z,22.13
2023-05-14T10:06:33.342Z,20.73
2023-05-14T10:09:10.745Z,22.58
2023-05-14T10:11:41.133Z,20.80
2023-05-14T10:14:09.878Z,20.42
2023-05-14T10:16:48.743Z,20.30
2023-05-14T10:19:17.382Z,20.83
2023-05-14T10:22:00.039Z,22.05
2023-05-14T10:24:27.398Z,22.10
2023-05-14T10:26:54.864Z,21.95
2023-05-14T10:29:31.585Z,21.98
2023-05-14T10:31:58.380Z,21.83
2023-05-14T10:34:41.777Z,22.88
2023-05-14T10:37:12.779Z,20.30
2023-05-14T10:39:42.200Z,20.70
2023-05-14T10:42:11.320Z,21.38
2023-05-14T10:44:45.092Z,20.23
2023-05-14T10:47:11.897Z,21.75
2023-05-14T10:49:43.933Z,22.38
2023-05-14T10:52:11.980Z,23.38
2023-05-14T10:54:39.032Z,22.67
2023-05-14T10:57:09.758Z,21.42
2023-05-14T10:59:36.981Z,20.38
2023-05-14T11:02:05.600Z,22.20
2023-05-14T11:04:32.371Z,25.08
2023-05-14T11:06:59.650Z,22.05
2023-05-14T11:09:26.505Z,22.38
2023-05-14T11:11:53.166Z,22.25
2023-05-14T11:14:30.262Z,21.58
2023-05-14T11:16:59.227Z,22.10
2023-05-14T11:19:26.018Z,20.38
2023-05-14T11:21:52.721Z,22.67
2023-05-14T11:24:19.382Z,23.23
2023-05-14T11:26:46.345Z,22.63
2023-05-14T11:31:40.601Z,21.50
2023-05-14T11:34:10.846Z,23.25
2023-05-14T12:21:04.328Z,21.30
2023-05-14T12:23:31.541Z,24.00
2023-05-14T12:26:10.506Z,23.13
2023-05-14T12:28:48.043Z,23.02
2023-05-14T12:31:15.705Z,21.77
2023-05-14T12:33:42.410Z,21.83
2023-05-14T12:36:21.308Z,22.60
2023-05-14T12:38:49.650Z,22.27
2023-05-14T12:41:20.139Z,21.80
2023-05-14T12:43:48.471Z,24.35
2023-05-14T12:46:16.632Z,29.05
2023-05-14T12:48:43.338Z,21.73
2023-05-14T12:51:10.090Z,24.35
2023-05-14T12:53:37.272Z,22.85
2023-05-14T12:56:03.961Z,20.95
2023-05-14T12:58:34.646Z,21.40
2023-05-14T13:01:01.952Z,21.30
2023-05-14T13:03:28.677Z,22.70
2023-05-14T13:05:56.911Z,20.80
2023-05-14T13:08:26.947Z,21.30
2023-05-14T13:10:54.347Z,20.83
2023-05-14T13:13:22.153Z,21.77
2023-05-14T13:15:49.094Z,21.05
2023-05-14T13:20:49.201Z,20.90
2023-05-14T13:23:15.949Z,21.77
2023-05-14T13:25:49.765Z,20.85
2023-05-14T13:28:18.831Z,21.00
2023-05-14T13:31:03.235Z,21.15
2023-05-14T13:33:32.948Z,21.45
2023-05-14T13:36:00.350Z,20.83
2023-05-14T13:38:27.482Z,21.45
2023-05-14T13:40:57.305Z,23.65
2023-05-14T13:43:24.495Z,21.55
2023-05-14T13:45:54.371Z,21.95
2023-05-14T13:48:21.050Z,21.30
2023-05-14T13:50:47.816Z,20.75
2023-05-14T13:53:15.084Z,22.15
2023-05-14T13:58:17.286Z,21.23
2023-05-14T14:00:43.967Z,22.33
2023-05-14T14:03:10.815Z,23.58
2023-05-14T14:05:38.148Z,22.45
2023-05-14T14:08:22.127Z,22.08
2023-05-14T14:10:50.483Z,22.63
2023-05-14T14:13:29.800Z,21.52
2023-05-14T14:15:59.470Z,21.38
2023-05-14T14:18:26.240Z,20.77
2023-05-14T14:20:52.916Z,22.95
2023-05-14T14:23:22.449Z,23.00
2023-05-14T14:25:49.217Z,24.13
2023-05-14T14:28:15.918Z,20.20
2023-05-14T14:30:43.963Z,21.90
2023-05-14T14:33:11.644Z,21.25
2023-05-14T14:35:41.297Z,20.85
2023-05-14T14:38:07.951Z,24.30
2023-05-14T14:40:35.662Z,20.50
2023-05-14T14:43:02.485Z,21.02
2023-05-14T14:48:19.027Z,21.13
2023-05-14T14:50:45.675Z,19.75
2023-05-14T14:53:25.746Z,20.85
2023-05-14T14:55:53.140Z,21.80
2023-05-14T14:58:20.821Z,20.92
2023-05-14T15:00:51.509Z,21.73
2023-05-14T15:03:18.729Z,21.90
2023-05-14T15:05:48.513Z,21.55
2023-05-14T15:08:15.540Z,21.48
2023-05-14T15:10:43.306Z,22.15
2023-05-14T15:13:12.124Z,23.83
2023-05-14T15:15:38.813Z,26.08
2023-05-14T15:18:17.064Z,23.30
2023-05-14T15:20:44.682Z,21.70
2023-05-14T15:23:11.862Z,21.25
2023-05-14T15:25:39.172Z,22.05
2023-05-14T15:28:07.354Z,21.02
2023-05-14T15:30:34.058Z,21.88
2023-05-14T15:33:02.005Z,22.65
2023-05-14T15:35:39.997Z,20.50
2023-05-14T15:38:07.970Z,22.02
2023-05-14T15:40:35.509Z,21.75
2023-05-14T15:43:05.245Z,21.95
2023-05-14T15:45:34.852Z,20.90
2023-05-14T15:48:01.591Z,22.13
2023-05-14T15:50:33.918Z,22.35
2023-05-14T15:53:00.803Z,25.83
2023-05-14T15:55:28.687Z,23.08
2023-05-14T15:57:55.823Z,22.00
2023-05-14T16:00:22.831Z,22.40
2023-05-14T16:02:49.733Z,24.50
2023-05-14T16:05:19.454Z,20.95
2023-05-14T16:07:46.206Z,22.30
2023-05-14T16:10:13.545Z,21.33
2023-05-14T16:12:40.224Z,25.08
2023-05-14T16:15:07.435Z,23.55
2023-05-14T16:17:37.116Z,22.92
2023-05-14T16:20:05.134Z,21.33
2023-05-14T16:22:33.032Z,21.50
2023-05-14T16:25:02.587Z,21.08
2023-05-14T16:29:59.646Z,22.98
2023-05-14T16:32:26.395Z,24.92
2023-05-14T16:34:53.152Z,22.15
2023-05-14T16:37:22.689Z,22.02
2023-05-14T16:39:49.900Z,23.33
2023-05-14T16:42:16.961Z,21.85
2023-05-14T16:44:43.953Z,22.27
2023-05-14T16:49:40.811Z,21.98
2023-05-14T16:52:08.498Z,23.23
2023-05-14T16:54:35.186Z,23.13
2023-05-14T16:57:02.137Z,21.65
2023-05-14T17:02:01.343Z,21.23
2023-05-14T17:04:28.168Z,22.63
2023-05-14T17:06:57.545Z,22.90
2023-05-14T17:09:24.210Z,21.65
2023-05-14T17:11:52.906Z,22.98
2023-05-14T17:14:19.515Z,22.67
2023-05-14T17:16:46.657Z,22.13
2023-05-14T17:19:13.500Z,21.77
2023-05-14T17:21:40.294Z,21.85
2023-05-14T17:27:16.826Z,22.65
2023-05-14T17:32:11.765Z,22.77
2023-05-14T17:34:41.229Z,21.83
2023-05-14T17:37:08.429Z,22.42
2023-05-14T17:39:41.517Z,26.33
2023-05-14T17:42:09.284Z,22.40
2023-05-14T17:44:40.363Z,24.90
2023-05-14T17:47:13.898Z,22.40
2023-05-14T17:49:44.123Z,22.40
2023-05-14T17:52:10.887Z,23.35
2023-05-14T17:54:37.573Z,24.15
2023-05-14T17:57:05.277Z,22.45
2023-05-14T17:59:41.926Z,23.35
2023-05-14T18:02:08.600Z,23.05
2023-05-14T18:04:35.232Z,23.05
2023-05-14T18:07:03.802Z,22.38
2023-05-14T18:09:30.485Z,21.88
2023-05-14T18:12:00.464Z,25.65
2023-05-14T18:14:27.276Z,22.33
2023-05-14T18:16:59.095Z,22.73
2023-05-14T18:19:28.424Z,22.65
2023-05-14T18:22:09.052Z,21.42
2023-05-14T18:24:35.686Z,22.92
2023-05-14T18:29:43.658Z,23.17
2023-05-14T18:32:10.491Z,26.40
2023-05-14T18:34:37.234Z,23.40
2023-05-14T18:37:03.930Z,21.85
2023-05-14T18:39:33.372Z,23.15
2023-05-14T18:42:00.049Z,22.73
2023-05-14T18:44:26.716Z,23.70
2023-05-14T19:16:37.100Z,22.77
2023-05-14T19:19:03.835Z,22.10
2023-05-14T19:21:42.567Z,23.48
2023-05-14T19:24:09.179Z,22.67
2023-05-14T19:26:35.910Z,24.20
2023-05-14T19:29:02.658Z,22.88
2023-05-14T19:31:29.287Z,22.40
2023-05-14T19:33:56.018Z,22.33
2023-05-14T19:36:23.282Z,23.15
2023-05-14T19:38:50.527Z,23.13
2023-05-14T19:43:49.631Z,23.67
2023-05-14T19:46:16.405Z,26.80
2023-05-14T19:48:43.073Z,25.38
2023-05-14T19:51:10.291Z,25.05
2023-05-14T19:58:32.790Z,24.92
2023-05-14T20:01:00.951Z,26.38
2023-05-14T20:03:27.844Z,23.17
2023-05-14T20:05:56.705Z,24.73
2023-05-14T20:08:23.316Z,23.13
2023-05-14T20:10:51.803Z,23.45
2023-05-14T20:13:18.506Z,24.05
2023-05-14T20:15:45.538Z,24.85
2023-05-14T20:18:12.334Z,25.10
2023-05-14T20:20:40.167Z,27.52
2023-05-14T20:23:06.812Z,24.63
2023-05-14T20:25:33.576Z,25.25
2023-05-14T20:28:01.231Z,24.23
2023-05-14T20:30:28.101Z,24.58
2023-05-14T20:32:55.670Z,25.35
2023-05-14T20:35:22.446Z,24.00
2023-05-14T20:37:49.759Z,25.25
2023-05-14T20:40:16.710Z,25.10
2023-05-14T20:42:43.640Z,23.80
2023-05-14T20:45:10.823Z,25.05
2023-05-14T20:47:40.811Z,24.63
2023-05-14T20:50:07.805Z,28.88
2023-05-14T20:52:34.581Z,25.75
2023-05-14T20:55:01.959Z,26.08
2023-05-14T20:57:29.140Z,29.58
2023-05-14T21:00:01.133Z,26.38
2023-05-14T21:02:27.931Z,26.25
2023-05-14T21:04:55.054Z,26.42
2023-05-14T21:07:21.821Z,25.27
2023-05-14T21:09:55.629Z,24.67
2023-05-14T21:12:24.907Z,25.45
2023-05-14T21:14:54.349Z,26.55
2023-05-14T21:17:21.114Z,25.80
2023-05-14T21:19:53.372Z,26.65
2023-05-14T21:22:20.146Z,24.50
2023-05-14T21:24:47.091Z,24.20
2023-05-14T21:27:19.692Z,28.35
2023-05-14T21:29:46.856Z,27.90
2023-05-14T21:32:14.201Z,26.48
2023-05-14T21:39:38.078Z,29.58
2023-05-14T21:42:07.800Z,26.13
2023-05-14T21:44:34.496Z,26.35
2023-05-14T21:47:10.195Z,27.55
2023-05-14T21:49:37.002Z,25.80
2023-05-14T21:52:03.987Z,30.23
2023-05-14T21:54:41.383Z,26.50
2023-05-14T21:57:08.216Z,26.67
2023-05-14T21:59:35.502Z,28.00
2023-05-14T22:04:37.635Z,25.90
2023-05-14T22:07:04.593Z,25.52
2023-05-14T22:09:33.867Z,25.80
2023-05-14T22:12:01.120Z,26.92
2023-05-14T22:17:41.353Z,26.80
2023-05-14T22:20:09.530Z,26.50
2023-05-14T22:22:36.738Z,26.15
2023-05-14T22:25:04.220Z,26.70
2023-05-14T22:27:32.085Z,25.85
2023-05-14T22:30:01.996Z,25.15
2023-05-14T22:32:29.269Z,26.80
2023-05-14T22:34:59.107Z,26.38
2023-05-14T22:37:30.626Z,26.30
2023-05-14T22:39:57.323Z,27.98
2023-05-14T22:42:27.552Z,28.00
2023-05-14T22:47:37.065Z,26.42
2023-05-14T22:50:03.779Z,26.95
2023-05-14T22:52:34.827Z,26.38
2023-05-14T22:55:05.340Z,28.15
2023-05-14T22:57:38.192Z,28.10
2023-05-14T23:02:52.378Z,26.75
2023-05-14T23:05:19.026Z,27.20
2023-05-14T23:10:29.884Z,24.92
2023-05-14T23:12:59.953Z,25.38
2023-05-14T23:18:17.324Z,26.23
2023-05-14T23:20:44.528Z,26.77
2023-05-14T23:23:12.074Z,28.73
2023-05-14T23:25:38.743Z,24.85
2023-05-14T23:28:05.529Z,27.52
2023-05-14T23:30:32.664Z,26.65
2023-05-14T23:33:00.375Z,26.83
2023-05-14T23:38:12.479Z,27.08
2023-05-14T23:40:47.186Z,25.95
2023-05-14T23:43:14.858Z,27.17
2023-05-14T23:54:52.602Z,25.63
